DHTCL EDHL-EDDH
Flight info
| Callsign | DHTCL |
|---|---|
| Flight time | 0h 20m |
| Altitude | |
| Route | |
| Aircraft | B06 |
Departure
| Time | 2026-05-05 17:53 |
|---|---|
| Airport | Lübeck Blankensee Airport (EDHL) |
Arrival
| Time | 2026-05-05 18:13 |
|---|---|
| Airport | Hamburg Helmut Schmidt Airport (EDDH) |
| Time | Latitude | Longitude | Altitude | Speed | Heading |
|---|---|---|---|---|---|
| 2026-05-05 17:49 | 53.80547 | 10.70547 | 54 ft | 0 kts | 227° |
| 2026-05-05 17:50 | 53.80545 | 10.70545 | 57 ft | 2 kts | 241° |
| 2026-05-05 17:50 | 53.80565 | 10.70492 | 64 ft | 6 kts | 315° |
| 2026-05-05 17:50 | 53.80602 | 10.70425 | 65 ft | 9 kts | 253° |
| 2026-05-05 17:50 | 53.80550 | 10.70318 | 76 ft | 13 kts | 141° |
| 2026-05-05 17:51 | 53.80444 | 10.70441 | 80 ft | 10 kts | 142° |
| 2026-05-05 17:51 | 53.80421 | 10.70472 | 56 ft | 0 kts | 136° |
| 2026-05-05 17:52 | 53.80376 | 10.70515 | 67 ft | 14 kts | 142° |
| 2026-05-05 17:52 | 53.80303 | 10.70735 | 115 ft | 44 kts | 70° |
| 2026-05-05 17:52 | 53.80436 | 10.71470 | 210 ft | 77 kts | 71° |
| 2026-05-05 17:53 | 53.80592 | 10.72358 | 362 ft | 82 kts | 73° |
| 2026-05-05 17:53 | 53.80750 | 10.73289 | 508 ft | 81 kts | 65° |
| 2026-05-05 17:53 | 53.81176 | 10.73713 | 751 ft | 78 kts | 358° |
| 2026-05-05 17:53 | 53.81528 | 10.73048 | 1068 ft | 80 kts | 296° |
| 2026-05-05 17:54 | 53.81698 | 10.72091 | 1259 ft | 92 kts | 289° |
| 2026-05-05 17:54 | 53.81852 | 10.71020 | 1425 ft | 95 kts | 291° |
| 2026-05-05 17:54 | 53.82030 | 10.69855 | 1400 ft | 107 kts | 290° |
| 2026-05-05 17:54 | 53.82214 | 10.68606 | 1414 ft | 107 kts | 289° |
| 2026-05-05 17:55 | 53.82388 | 10.67391 | 1433 ft | 108 kts | 289° |
| 2026-05-05 17:55 | 53.82609 | 10.66188 | 1473 ft | 105 kts | 295° |
| 2026-05-05 17:55 | 53.82829 | 10.64986 | 1446 ft | 109 kts | 290° |
| 2026-05-05 17:55 | 53.83016 | 10.63753 | 1449 ft | 107 kts | 289° |
| 2026-05-05 17:56 | 53.83202 | 10.62552 | 1499 ft | 105 kts | 287° |
| 2026-05-05 17:56 | 53.83276 | 10.61293 | 1526 ft | 107 kts | 277° |
| 2026-05-05 17:56 | 53.83332 | 10.60037 | 1579 ft | 108 kts | 280° |
| 2026-05-05 17:56 | 53.83378 | 10.58753 | 1582 ft | 110 kts | 278° |
| 2026-05-05 17:57 | 53.83417 | 10.57469 | 1626 ft | 108 kts | 278° |
| 2026-05-05 17:57 | 53.83437 | 10.56189 | 1636 ft | 112 kts | 274° |
| 2026-05-05 17:57 | 53.83258 | 10.54850 | 1573 ft | 118 kts | 252° |
| 2026-05-05 17:57 | 53.83020 | 10.53612 | 1713 ft | 106 kts | 259° |
| 2026-05-05 17:58 | 53.82785 | 10.52383 | 1740 ft | 112 kts | 252° |
| 2026-05-05 17:58 | 53.82490 | 10.51144 | 1754 ft | 115 kts | 250° |
| 2026-05-05 17:58 | 53.82188 | 10.49875 | 1739 ft | 116 kts | 251° |
| 2026-05-05 17:58 | 53.81897 | 10.48597 | 1703 ft | 118 kts | 250° |
| 2026-05-05 17:59 | 53.81558 | 10.47324 | 1637 ft | 120 kts | 243° |
| 2026-05-05 17:59 | 53.81089 | 10.46174 | 1624 ft | 118 kts | 229° |
| 2026-05-05 17:59 | 53.80529 | 10.45133 | 1597 ft | 119 kts | 228° |
| 2026-05-05 17:59 | 53.80014 | 10.44069 | 1606 ft | 117 kts | 231° |
| 2026-05-05 18:00 | 53.79469 | 10.43021 | 1608 ft | 118 kts | 224° |
| 2026-05-05 18:00 | 53.78886 | 10.42071 | 1632 ft | 117 kts | 221° |
| 2026-05-05 18:00 | 53.78297 | 10.41123 | 1666 ft | 116 kts | 224° |
| 2026-05-05 18:00 | 53.77722 | 10.40142 | 1686 ft | 116 kts | 225° |
| 2026-05-05 18:01 | 53.77148 | 10.39196 | 1748 ft | 114 kts | 221° |
| 2026-05-05 18:01 | 53.76552 | 10.38310 | 1775 ft | 116 kts | 219° |
| 2026-05-05 18:01 | 53.75935 | 10.37409 | 1771 ft | 119 kts | 216° |
| 2026-05-05 18:01 | 53.75251 | 10.36625 | 1742 ft | 119 kts | 210° |
| 2026-05-05 18:02 | 53.74562 | 10.35863 | 1739 ft | 118 kts | 209° |
| 2026-05-05 18:02 | 53.73839 | 10.35127 | 1639 ft | 124 kts | 207° |
| 2026-05-05 18:02 | 53.73108 | 10.34403 | 1605 ft | 118 kts | 203° |
| 2026-05-05 18:02 | 53.72380 | 10.33803 | 1637 ft | 115 kts | 200° |
| 2026-05-05 18:03 | 53.71657 | 10.33228 | 1670 ft | 115 kts | 199° |
| 2026-05-05 18:03 | 53.70918 | 10.32712 | 1700 ft | 114 kts | 196° |
| 2026-05-05 18:03 | 53.70171 | 10.32242 | 1755 ft | 113 kts | 195° |
| 2026-05-05 18:03 | 53.69436 | 10.31739 | 1790 ft | 114 kts | 196° |
| 2026-05-05 18:04 | 53.68693 | 10.31290 | 1795 ft | 116 kts | 193° |
| 2026-05-05 18:04 | 53.67930 | 10.30809 | 1784 ft | 117 kts | 194° |
| 2026-05-05 18:04 | 53.67150 | 10.30308 | 1727 ft | 120 kts | 194° |
| 2026-05-05 18:04 | 53.66372 | 10.29794 | 1668 ft | 120 kts | 198° |
| 2026-05-05 18:05 | 53.65601 | 10.29282 | 1647 ft | 118 kts | 194° |
| 2026-05-05 18:05 | 53.64830 | 10.28814 | 1640 ft | 117 kts | 200° |
| 2026-05-05 18:05 | 53.64252 | 10.27863 | 1662 ft | 116 kts | 237° |
| 2026-05-05 18:05 | 53.63889 | 10.26687 | 1736 ft | 113 kts | 244° |
| 2026-05-05 18:06 | 53.63492 | 10.25506 | 1670 ft | 120 kts | 233° |
| 2026-05-05 18:06 | 53.63312 | 10.25130 | 1664 ft | 119 kts | 227° |
| 2026-05-05 18:06 | 53.62293 | 10.23565 | 1594 ft | 119 kts | 206° |
| 2026-05-05 18:06 | 53.61544 | 10.23010 | 1598 ft | 117 kts | 192° |
| 2026-05-05 18:07 | 53.60761 | 10.22651 | 1579 ft | 117 kts | 187° |
| 2026-05-05 18:07 | 53.59995 | 10.22181 | 1591 ft | 115 kts | 202° |
| 2026-05-05 18:07 | 53.59321 | 10.21457 | 1662 ft | 115 kts | 211° |
| 2026-05-05 18:07 | 53.58672 | 10.20676 | 1690 ft | 116 kts | 211° |
| 2026-05-05 18:08 | 53.58011 | 10.19902 | 1736 ft | 117 kts | 210° |
| 2026-05-05 18:08 | 53.57270 | 10.19190 | 1585 ft | 127 kts | 201° |
| 2026-05-05 18:08 | 53.56574 | 10.18300 | 1443 ft | 124 kts | 228° |
| 2026-05-05 18:08 | 53.56250 | 10.17040 | 1486 ft | 113 kts | 262° |
| 2026-05-05 18:09 | 53.56247 | 10.15745 | 1507 ft | 109 kts | 282° |
| 2026-05-05 18:09 | 53.56441 | 10.14534 | 1532 ft | 107 kts | 300° |
| 2026-05-05 18:09 | 53.56804 | 10.13473 | 1543 ft | 105 kts | 308° |
| 2026-05-05 18:09 | 53.57182 | 10.12426 | 1563 ft | 104 kts | 307° |
| 2026-05-05 18:10 | 53.57549 | 10.11366 | 1527 ft | 105 kts | 306° |
| 2026-05-05 18:10 | 53.57901 | 10.10251 | 1448 ft | 109 kts | 305° |
| 2026-05-05 18:10 | 53.58311 | 10.09205 | 1423 ft | 103 kts | 311° |
| 2026-05-05 18:10 | 53.58742 | 10.08271 | 1441 ft | 99 kts | 315° |
| 2026-05-05 18:11 | 53.59135 | 10.07258 | 1383 ft | 106 kts | 305° |
| 2026-05-05 18:11 | 53.59506 | 10.06191 | 1356 ft | 105 kts | 307° |
| 2026-05-05 18:11 | 53.59905 | 10.05223 | 1316 ft | 99 kts | 312° |
| 2026-05-05 18:11 | 53.60329 | 10.04380 | 1287 ft | 91 kts | 317° |
| 2026-05-05 18:12 | 53.60716 | 10.03584 | 1297 ft | 89 kts | 311° |
| 2026-05-05 18:12 | 53.61005 | 10.02634 | 1205 ft | 89 kts | 296° |
| 2026-05-05 18:12 | 53.61200 | 10.01699 | 1189 ft | 78 kts | 297° |
| 2026-05-05 18:12 | 53.61429 | 10.00891 | 1044 ft | 74 kts | 306° |
| 2026-05-05 18:13 | 53.61640 | 10.00177 | 853 ft | 63 kts | 308° |
| 2026-05-05 18:13 | 53.61842 | 9.99542 | 659 ft | 57 kts | 313° |
| 2026-05-05 18:13 | 53.62035 | 9.99024 | 470 ft | 49 kts | 313° |
| 2026-05-05 18:13 | 53.62209 | 9.98648 | 258 ft | 34 kts | 337° |
| 2026-05-05 18:14 | 53.62396 | 9.98508 | 111 ft | 24 kts | 352° |
| 2026-05-05 18:14 | 53.62523 | 9.98469 | 48 ft | 12 kts | 351° |
| 2026-05-05 18:14 | 53.62557 | 9.98459 | 41 ft | 1 kts | 356° |
| 2026-05-05 18:14 | 53.62565 | 9.98457 | 40 ft | 3 kts | 351° |
| 2026-05-05 18:15 | 53.62604 | 9.98444 | 39 ft | 7 kts | 5° |
| 2026-05-05 18:15 | 53.62653 | 9.98477 | 45 ft | 8 kts | 50° |
| 2026-05-05 18:15 | 53.62695 | 9.98561 | 47 ft | 12 kts | 49° |
| 2026-05-05 18:15 | 53.62744 | 9.98658 | 42 ft | 6 kts | 58° |
| 2026-05-05 18:16 | 53.62750 | 9.98699 | 40 ft | 3 kts | 141° |
| 2026-05-05 18:16 | 53.62725 | 9.98741 | 42 ft | 4 kts | 135° |
| 2026-05-05 18:16 | 53.62700 | 9.98776 | 43 ft | 3 kts | 159° |
| 2026-05-05 18:16 | 53.62690 | 9.98785 | 37 ft | 0 kts | 154° |